KMFV/MFV METAR and TAF weather

Enter ICAO airport designator
Station Type Date Time Source
KMFV METAR 2022/06/26 05:15 UTC NOAA

KMFV 260515Z AUTO 23003KT 10SM CLR 15/14 A3017 RMK AO2 T01520142


Station Type Date Time Source
KMFV Decoded METAR 2022/06/26 05:15 UTC NOAA

Melfa / Accomack Airport, VA, United States (KMFV) 37-39N 075-46W
Jun 26, 2022 - 01:15 AM EDT / 2022.06.26 0515 UTC
Wind: from the SW (230 degrees) at 3 MPH (3 KT):0
Visibility: 10 mile(s):0
Sky conditions: clear
Temperature: 59.4 F (15.2 C)
Dew Point: 57.6 F (14.2 C)
Relative Humidity: 93%
Pressure (altimeter): 30.17 in. Hg (1021 hPa)
ob: KMFV 260515Z AUTO 23003KT 10SM CLR 15/14 A3017 RMK AO2 T01520142
cycle: 5

Station Type Date Time Source
KMFV TAF UTC NOAA

Error!

Example: see airport list